Time;durP1;ratioP1;P1;durP2;ratioP2;P2;SDS_P1;SDS_P2;PMS_P1;PMS_P2;Temp;Humidity;BMP_temperature;BMP_pressure;BME280_temperature;BME280_humidity;BME280_pressure;Samples;Min_cycle;Max_cycle;Signal;HPM_P1;HPM_P2
2021/11/30 00:01:41;;;;;;;11.40;4.22;;;4.70;99.90;;;;;;5032809;28;20636;-55
2021/11/30 00:04:06;;;;;;;9.75;4.50;;;4.70;99.90;;;;;;5032894;28;20029;-55
2021/11/30 00:06:33;;;;;;;13.77;4.53;;;4.80;99.90;;;;;;5015202;28;20022;-53
2021/11/30 00:09:20;;;;;;;13.00;4.72;;;4.80;99.90;;;;;;5032586;28;20033;-54
2021/11/30 00:11:45;;;;;;;7.75;4.00;;;4.80;99.90;;;;;;5032255;28;20026;-55
2021/11/30 00:14:11;;;;;;;9.88;4.53;;;4.80;99.90;;;;;;5031995;28;20372;-56
2021/11/30 00:16:36;;;;;;;11.57;3.97;;;4.80;99.90;;;;;;5014385;28;20030;-56
2021/11/30 00:19:02;;;;;;;8.88;4.07;;;4.80;99.90;;;;;;5055970;23;20049;-45
2021/11/30 00:21:27;;;;;;;14.15;4.43;;;4.70;99.90;;;;;;5051539;28;20090;-49
2021/11/30 00:23:53;;;;;;;13.00;4.15;;;4.70;99.90;;;;;;5051848;28;20483;-46
2021/11/30 00:26:18;;;;;;;15.85;5.10;;;4.70;99.90;;;;;;5051610;28;20451;-47
2021/11/30 00:28:44;;;;;;;8.40;4.38;;;4.70;99.90;;;;;;5050296;28;20403;-47
2021/11/30 00:31:09;;;;;;;16.67;5.13;;;4.70;99.90;;;;;;5049870;28;20036;-47
2021/11/30 00:33:35;;;;;;;15.07;4.72;;;4.70;99.90;;;;;;5050165;28;20445;-49
2021/11/30 00:36:00;;;;;;;11.07;4.00;;;4.80;99.90;;;;;;5050076;28;20496;-46
2021/11/30 00:38:27;;;;;;;11.43;4.47;;;4.80;99.90;;;;;;5050003;28;20112;-50
2021/11/30 00:40:52;;;;;;;5.70;3.78;;;4.80;99.90;;;;;;5050273;28;20475;-49
2021/11/30 00:43:20;;;;;;;14.82;5.65;;;4.70;99.90;;;;;;5051786;28;20036;-45
2021/11/30 00:45:57;;;;;;;12.30;5.20;;;4.70;99.90;;;;;;5051569;28;20020;-46
2021/11/30 00:48:29;;;;;;;4.60;4.10;;;4.70;99.90;;;;;;5051569;28;20033;-48
2021/11/30 00:50:57;;;;;;;7.47;3.92;;;4.60;99.90;;;;;;5051198;28;20025;-48
2021/11/30 00:53:23;;;;;;;18.35;4.40;;;4.70;99.90;;;;;;5051465;28;20032;-51
2021/11/30 00:55:48;;;;;;;12.27;4.85;;;4.70;99.90;;;;;;5051198;28;20029;-46
2021/11/30 00:58:14;;;;;;;6.80;4.03;;;4.70;99.90;;;;;;5051405;28;20167;-46
2021/11/30 01:00:40;;;;;;;9.23;3.83;;;4.70;99.90;;;;;;5051158;28;20056;-48
2021/11/30 01:03:07;;;;;;;5.35;4.00;;;4.70;99.90;;;;;;5051385;28;20028;-46
2021/11/30 01:05:34;;;;;;;8.07;4.13;;;4.70;99.90;;;;;;5050316;28;20027;-47
2021/11/30 01:08:00;;;;;;;7.55;4.53;;;4.70;99.90;;;;;;5051254;28;20036;-52
2021/11/30 01:10:26;;;;;;;4.72;3.75;;;4.80;99.90;;;;;;5051080;28;20475;-51
2021/11/30 01:12:52;;;;;;;7.55;4.03;;;4.70;99.90;;;;;;5050008;28;20031;-53
2021/11/30 01:15:20;;;;;;;7.85;3.70;;;4.80;99.90;;;;;;5052081;28;20025;-49
2021/11/30 01:17:45;;;;;;;7.50;4.15;;;4.70;99.90;;;;;;5052559;28;20104;-47
2021/11/30 01:20:11;;;;;;;6.68;3.92;;;4.70;99.90;;;;;;5051369;28;20128;-52
2021/11/30 01:22:38;;;;;;;8.77;3.85;;;4.80;99.90;;;;;;5051316;28;20029;-46
2021/11/30 01:25:05;;;;;;;7.00;3.78;;;4.80;99.90;;;;;;5051156;28;20021;-49
2021/11/30 01:27:31;;;;;;;8.48;3.55;;;4.70;99.90;;;;;;5051150;28;20021;-51
2021/11/30 01:29:56;;;;;;;8.07;3.30;;;4.70;99.90;;;;;;5050915;28;20032;-53
2021/11/30 01:32:22;;;;;;;9.27;3.72;;;4.80;99.90;;;;;;5050919;28;20395;-51
2021/11/30 01:34:47;;;;;;;7.43;3.47;;;4.80;99.90;;;;;;5051092;28;20025;-45
2021/11/30 01:37:16;;;;;;;6.25;3.30;;;4.70;99.90;;;;;;5050983;28;20040;-46
2021/11/30 01:39:44;;;;;;;7.97;3.25;;;4.70;99.90;;;;;;5052315;28;20092;-45
2021/11/30 01:42:12;;;;;;;8.32;4.05;;;4.70;99.90;;;;;;5054502;28;20479;-45
2021/11/30 01:44:48;;;;;;;7.03;3.17;;;4.70;99.90;;;;;;5053362;28;20033;-50
2021/11/30 01:49:58;;;;;;;5.05;4.05;;;4.70;99.90;;;;;;5054558;28;20029;-51
2021/11/30 01:52:24;;;;;;;7.82;3.15;;;4.70;99.90;;;;;;5054601;28;20013;-49
2021/11/30 01:54:51;;;;;;;4.38;2.67;;;4.60;99.90;;;;;;5054700;28;20020;-47
2021/11/30 01:57:19;;;;;;;4.70;2.65;;;4.60;99.90;;;;;;5054503;28;20028;-49
2021/11/30 01:59:49;;;;;;;6.70;2.78;;;4.60;99.90;;;;;;5054221;28;20039;-47
2021/11/30 02:02:14;;;;;;;2.70;2.22;;;4.60;99.90;;;;;;5054469;28;20094;-46
2021/11/30 02:04:41;;;;;;;6.03;2.50;;;4.50;99.90;;;;;;5053343;28;20028;-47
2021/11/30 02:07:08;;;;;;;9.05;2.83;;;4.50;99.90;;;;;;5054545;28;20029;-47
2021/11/30 02:09:35;;;;;;;4.38;2.78;;;4.50;99.90;;;;;;5054188;28;20024;-51
2021/11/30 02:12:02;;;;;;;5.10;2.20;;;4.50;99.90;;;;;;5054463;28;20024;-45
2021/11/30 02:14:28;;;;;;;2.50;2.00;;;4.50;99.90;;;;;;5054421;28;20029;-46
2021/11/30 02:16:53;;;;;;;6.03;2.47;;;4.50;99.90;;;;;;5054228;28;20055;-50
2021/11/30 02:19:19;;;;;;;7.22;2.42;;;4.40;99.90;;;;;;5054327;28;20143;-50
2021/11/30 02:21:45;;;;;;;13.05;2.90;;;4.40;99.90;;;;;;5054426;28;20025;-48
2021/11/30 02:24:11;;;;;;;6.95;2.75;;;4.40;99.90;;;;;;5054744;28;20078;-47
2021/11/30 02:26:38;;;;;;;6.43;2.58;;;4.40;99.90;;;;;;5054271;28;20111;-47
2021/11/30 02:29:05;;;;;;;7.57;2.78;;;4.30;99.90;;;;;;5054195;28;20033;-48
2021/11/30 02:31:38;;;;;;;2.33;2.05;;;4.30;99.90;;;;;;5054124;28;20509;-47
2021/11/30 02:34:04;;;;;;;2.65;2.45;;;4.30;99.90;;;;;;5053913;28;20036;-47
2021/11/30 02:39:11;;;;;;;3.25;2.40;;;4.30;99.90;;;;;;5053727;28;20033;-47
2021/11/30 02:41:38;;;;;;;4.20;2.88;;;4.20;99.90;;;;;;5054409;28;20549;-48
2021/11/30 02:44:05;;;;;;;6.90;3.00;;;4.20;99.90;;;;;;5054042;28;20025;-47
2021/11/30 02:46:45;;;;;;;3.15;2.50;;;4.20;99.90;;;;;;5053855;28;20048;-51
2021/11/30 02:49:15;;;;;;;5.28;2.72;;;4.20;99.90;;;;;;5053442;28;20021;-54
2021/11/30 02:51:46;;;;;;;5.80;3.60;;;4.10;99.90;;;;;;5053364;28;20402;-47
2021/11/30 02:54:14;;;;;;;9.05;2.72;;;4.20;99.90;;;;;;5053680;28;20025;-51
2021/11/30 02:56:42;;;;;;;6.10;2.75;;;4.10;99.90;;;;;;5053518;28;20017;-48
2021/11/30 02:59:08;;;;;;;3.30;2.55;;;4.10;99.90;;;;;;5051671;28;20486;-47
2021/11/30 03:01:33;;;;;;;6.68;2.63;;;4.10;99.90;;;;;;5053581;28;20086;-48
2021/11/30 03:03:59;;;;;;;3.65;2.80;;;4.10;99.90;;;;;;5053628;28;20021;-46
2021/11/30 03:06:25;;;;;;;6.47;3.10;;;4.10;99.90;;;;;;5053395;28;20467;-48
2021/11/30 03:08:50;;;;;;;4.88;2.95;;;4.20;99.90;;;;;;5052046;28;20028;-48
2021/11/30 03:11:16;;;;;;;8.48;3.08;;;4.20;99.90;;;;;;5053125;28;20062;-46
2021/11/30 03:13:41;;;;;;;6.30;3.00;;;4.20;99.90;;;;;;5053159;28;20070;-45
2021/11/30 03:16:07;;;;;;;2.50;2.30;;;4.20;99.90;;;;;;5053233;28;20111;-49
2021/11/30 03:18:35;;;;;;;6.85;3.58;;;4.20;99.90;;;;;;5053068;28;20036;-47
2021/11/30 03:21:03;;;;;;;5.75;2.90;;;4.20;99.90;;;;;;5052889;28;20045;-46
2021/11/30 03:23:28;;;;;;;4.10;3.15;;;4.20;99.90;;;;;;5053156;28;20025;-49
2021/11/30 03:25:54;;;;;;;5.45;3.38;;;4.20;99.90;;;;;;5053224;28;20112;-49
2021/11/30 03:28:19;;;;;;;6.25;3.25;;;4.20;99.90;;;;;;5052942;28;20036;-48
2021/11/30 03:30:54;;;;;;;5.18;3.80;;;4.20;99.90;;;;;;5052779;28;20025;-49
2021/11/30 03:36:04;;;;;;;12.02;4.25;;;4.20;99.90;;;;;;5053187;28;20110;-48
2021/11/30 03:38:30;;;;;;;5.18;3.20;;;4.30;99.90;;;;;;5053374;28;20478;-47
2021/11/30 03:40:55;;;;;;;8.55;3.20;;;4.30;99.90;;;;;;5052476;28;20029;-46
2021/11/30 03:43:21;;;;;;;8.32;3.75;;;4.30;99.90;;;;;;5053335;28;20036;-49
2021/11/30 03:45:47;;;;;;;10.25;3.58;;;4.20;99.90;;;;;;5052749;28;20425;-47
2021/11/30 03:48:12;;;;;;;5.68;3.50;;;4.20;99.90;;;;;;5052675;28;20036;-47
2021/11/30 03:50:38;;;;;;;7.20;3.05;;;4.20;99.90;;;;;;5052230;28;20108;-47
2021/11/30 03:53:03;;;;;;;6.50;3.22;;;4.20;99.90;;;;;;5052666;28;20033;-47
2021/11/30 03:55:29;;;;;;;6.50;3.80;;;4.30;99.90;;;;;;5052436;28;20112;-47
2021/11/30 03:57:55;;;;;;;9.52;4.63;;;4.30;99.90;;;;;;5052400;28;20112;-51
2021/11/30 04:00:20;;;;;;;8.32;4.13;;;4.30;99.90;;;;;;5052006;28;20028;-47
2021/11/30 04:02:46;;;;;;;8.07;3.67;;;4.30;99.90;;;;;;5052128;28;20025;-46
2021/11/30 04:05:11;;;;;;;5.22;3.72;;;4.30;99.90;;;;;;5052313;28;20078;-50
2021/11/30 04:07:37;;;;;;;7.53;4.30;;;4.40;99.90;;;;;;5052365;28;20029;-49
2021/11/30 04:10:04;;;;;;;7.15;3.40;;;4.40;99.90;;;;;;5051800;28;20032;-46
2021/11/30 04:12:29;;;;;;;4.70;3.67;;;4.40;99.90;;;;;;5052079;28;20037;-51
2021/11/30 04:14:55;;;;;;;6.50;3.25;;;4.40;99.90;;;;;;5052173;28;20402;-48
2021/11/30 04:17:20;;;;;;;6.28;3.45;;;4.40;99.90;;;;;;5052227;28;20072;-46
2021/11/30 04:19:46;;;;;;;3.42;3.13;;;4.40;99.90;;;;;;5051524;28;20090;-51
2021/11/30 04:22:12;;;;;;;4.03;3.63;;;4.40;99.90;;;;;;5051964;28;20028;-49
2021/11/30 04:24:37;;;;;;;5.68;3.40;;;4.40;99.90;;;;;;5051915;28;20051;-48
2021/11/30 04:27:03;;;;;;;3.55;3.15;;;4.40;99.90;;;;;;5052058;28;20387;-47
2021/11/30 04:29:29;;;;;;;5.80;3.47;;;4.40;99.90;;;;;;5051743;28;20504;-49
2021/11/30 04:31:54;;;;;;;6.13;4.00;;;4.40;99.90;;;;;;5051807;28;20482;-49
2021/11/30 04:34:20;;;;;;;5.57;3.47;;;4.40;99.90;;;;;;5052098;28;20112;-51
2021/11/30 04:36:46;;;;;;;5.95;3.67;;;4.30;99.90;;;;;;5051706;28;20033;-46
2021/11/30 04:39:12;;;;;;;6.22;4.20;;;4.30;99.90;;;;;;5051284;28;20154;-46
2021/11/30 04:41:37;;;;;;;6.00;4.82;;;4.30;99.90;;;;;;5051353;28;20078;-46
2021/11/30 04:44:05;;;;;;;8.07;4.72;;;4.30;99.90;;;;;;5051593;28;20028;-47
2021/11/30 04:46:40;;;;;;;6.97;5.15;;;4.20;99.90;;;;;;5051603;28;20079;-46
2021/11/30 04:49:27;;;;;;;10.43;5.25;;;4.20;99.90;;;;;;5051544;28;20028;-46
2021/11/30 04:51:53;;;;;;;10.32;5.30;;;4.10;99.90;;;;;;5051582;28;20037;-46
2021/11/30 04:54:18;;;;;;;10.73;6.57;;;4.10;99.90;;;;;;5052111;28;20029;-46
2021/11/30 04:56:44;;;;;;;11.18;6.03;;;4.00;99.90;;;;;;5051556;28;20029;-48
2021/11/30 04:59:09;;;;;;;12.82;5.75;;;4.00;99.90;;;;;;5051030;28;20036;-46
2021/11/30 05:01:35;;;;;;;7.88;6.13;;;3.90;99.90;;;;;;5051291;28;20033;-46
2021/11/30 05:04:00;;;;;;;9.48;7.05;;;3.90;99.90;;;;;;5051204;28;20028;-46
2021/11/30 05:06:26;;;;;;;10.02;6.28;;;3.90;99.90;;;;;;5051319;28;20021;-46
2021/11/30 05:08:53;;;;;;;11.45;8.32;;;3.90;99.90;;;;;;5051124;28;20029;-48
2021/11/30 05:11:19;;;;;;;15.43;6.25;;;3.90;99.90;;;;;;5051088;28;20360;-47
2021/11/30 05:13:44;;;;;;;12.68;6.88;;;3.90;99.90;;;;;;5052624;28;20044;-47
2021/11/30 05:16:10;;;;;;;6.18;5.38;;;3.80;99.90;;;;;;5055531;28;20025;-47
2021/11/30 05:18:35;;;;;;;7.72;5.47;;;3.90;99.90;;;;;;5055268;28;20375;-49
2021/11/30 05:21:01;;;;;;;10.13;5.60;;;3.80;99.90;;;;;;5055047;28;20032;-47
2021/11/30 05:23:28;;;;;;;6.90;5.70;;;3.80;99.90;;;;;;5054120;28;20044;-47
2021/11/30 05:25:55;;;;;;;7.28;5.53;;;3.80;99.90;;;;;;5055311;28;20076;-49
2021/11/30 05:28:23;;;;;;;14.20;6.85;;;3.70;99.90;;;;;;5055331;28;20617;-46
2021/11/30 05:30:48;;;;;;;13.35;6.40;;;3.80;99.90;;;;;;5053462;28;20040;-48
2021/11/30 05:33:14;;;;;;;9.32;6.90;;;3.80;99.90;;;;;;5055002;28;20025;-48
2021/11/30 05:35:41;;;;;;;12.10;7.57;;;3.80;99.90;;;;;;5055111;28;20095;-50
2021/11/30 05:38:07;;;;;;;9.18;6.45;;;3.80;99.90;;;;;;5055065;28;20436;-46
2021/11/30 05:40:33;;;;;;;8.23;6.00;;;3.70;99.90;;;;;;5054619;28;20025;-48
2021/11/30 05:42:59;;;;;;;8.55;6.85;;;3.60;99.90;;;;;;5054475;28;20063;-50
2021/11/30 05:45:25;;;;;;;7.50;5.47;;;3.70;99.90;;;;;;5055190;28;20079;-46
2021/11/30 05:47:51;;;;;;;13.93;6.93;;;3.60;99.90;;;;;;5053496;28;20033;-47
2021/11/30 05:50:17;;;;;;;18.33;7.15;;;3.60;99.90;;;;;;5054615;28;20072;-47
2021/11/30 05:52:43;;;;;;;12.48;7.38;;;3.60;99.90;;;;;;5054871;28;20055;-52
2021/11/30 05:55:09;;;;;;;10.35;6.60;;;3.60;99.90;;;;;;5054786;28;20503;-49
2021/11/30 05:57:37;;;;;;;6.95;6.03;;;3.60;99.90;;;;;;5055188;28;20071;-49
2021/11/30 06:00:05;;;;;;;9.52;6.63;;;3.60;99.90;;;;;;5054269;28;20397;-47
2021/11/30 06:02:38;;;;;;;10.75;7.07;;;3.60;99.90;;;;;;5054825;28;20031;-47
2021/11/30 06:05:04;;;;;;;10.07;6.78;;;3.60;99.90;;;;;;5054827;28;20021;-50
2021/11/30 06:07:30;;;;;;;7.93;6.82;;;3.50;99.90;;;;;;5054774;28;20452;-51
2021/11/30 06:09:55;;;;;;;9.23;6.50;;;3.40;99.90;;;;;;5054408;28;20029;-48
2021/11/30 06:12:21;;;;;;;7.90;6.70;;;3.50;99.90;;;;;;5054631;28;20036;-48
2021/11/30 06:14:46;;;;;;;8.73;6.95;;;3.50;99.90;;;;;;5054598;28;20029;-50
2021/11/30 06:17:14;;;;;;;9.25;7.38;;;3.40;99.90;;;;;;5054273;28;20029;-47
2021/11/30 06:19:39;;;;;;;8.63;7.13;;;3.40;99.90;;;;;;5065413;22;20041;-53
2021/11/30 06:22:07;;;;;;;8.63;6.72;;;3.40;99.90;;;;;;5032916;28;20065;-55
2021/11/30 06:24:33;;;;;;;8.88;6.38;;;3.50;99.90;;;;;;5034131;28;20026;-54
2021/11/30 06:26:58;;;;;;;8.93;6.10;;;3.40;99.90;;;;;;5033474;28;20022;-56
2021/11/30 06:29:24;;;;;;;9.35;6.65;;;3.40;99.90;;;;;;5033775;28;20025;-52
2021/11/30 06:31:50;;;;;;;11.00;6.93;;;3.40;99.90;;;;;;5032620;28;20512;-55
2021/11/30 06:34:16;;;;;;;7.15;6.03;;;3.30;99.90;;;;;;5033816;28;20383;-57
2021/11/30 06:36:41;;;;;;;6.95;6.07;;;3.30;99.90;;;;;;5032662;28;20025;-53
2021/11/30 06:39:07;;;;;;;10.35;5.80;;;3.30;99.90;;;;;;5033632;28;20030;-53
2021/11/30 06:41:32;;;;;;;9.77;6.30;;;3.30;99.90;;;;;;5033925;28;20029;-55
2021/11/30 06:43:59;;;;;;;7.35;6.50;;;3.30;99.90;;;;;;5033860;28;20017;-52
2021/11/30 06:46:24;;;;;;;6.00;5.22;;;3.40;99.90;;;;;;5034161;28;20503;-56
2021/11/30 06:48:50;;;;;;;6.22;4.97;;;3.40;99.90;;;;;;5033718;28;20025;-53
2021/11/30 06:51:16;;;;;;;7.93;5.35;;;3.40;99.90;;;;;;5033262;28;20091;-56
2021/11/30 06:53:41;;;;;;;6.60;5.68;;;3.30;99.90;;;;;;5033671;28;20026;-55
2021/11/30 06:56:07;;;;;;;5.82;4.93;;;3.40;99.90;;;;;;5033747;28;20029;-56
2021/11/30 06:58:32;;;;;;;6.50;5.38;;;3.40;99.90;;;;;;5034039;28;20104;-56
2021/11/30 07:00:58;;;;;;;5.35;4.53;;;3.40;99.90;;;;;;5031792;28;20028;-52
2021/11/30 07:03:24;;;;;;;7.03;5.05;;;3.40;99.90;;;;;;5033552;28;20479;-54
2021/11/30 07:06:11;;;;;;;9.63;5.50;;;3.40;99.90;;;;;;5033289;28;20021;-56
2021/11/30 07:08:55;;;;;;;5.13;4.50;;;3.50;99.90;;;;;;5032012;28;20597;-52
2021/11/30 07:11:54;;;;;;;7.30;4.50;;;3.50;99.90;;;;;;5033093;28;20033;-56
2021/11/30 07:14:19;;;;;;;5.35;4.15;;;3.40;99.90;;;;;;5033315;28;20028;-55
2021/11/30 07:16:47;;;;;;;4.55;4.03;;;3.50;99.90;;;;;;5033317;28;20033;-55
2021/11/30 07:19:13;;;;;;;6.95;4.03;;;3.40;99.90;;;;;;5032741;28;20030;-52
2021/11/30 07:21:38;;;;;;;4.70;4.07;;;3.50;99.90;;;;;;5033039;28;20506;-55
2021/11/30 07:24:05;;;;;;;4.63;4.22;;;3.50;99.90;;;;;;5033121;28;20100;-54
2021/11/30 07:26:31;;;;;;;3.25;3.05;;;3.50;99.90;;;;;;5033309;28;20018;-55
2021/11/30 07:28:57;;;;;;;4.45;3.55;;;3.50;99.90;;;;;;5033029;28;20151;-55
2021/11/30 07:31:23;;;;;;;3.83;3.47;;;3.50;99.90;;;;;;5033200;28;20109;-56
2021/11/30 07:33:49;;;;;;;3.95;3.55;;;3.60;99.90;;;;;;5032849;28;20089;-55
2021/11/30 07:36:17;;;;;;;5.03;3.58;;;3.60;99.90;;;;;;5031285;28;20076;-55
2021/11/30 07:38:44;;;;;;;3.85;3.47;;;3.60;99.90;;;;;;5031943;28;20029;-54
2021/11/30 07:41:10;;;;;;;3.47;3.17;;;3.60;99.90;;;;;;5032384;28;20112;-49
2021/11/30 07:43:37;;;;;;;3.55;3.25;;;3.60;99.90;;;;;;5032656;28;20112;-55
2021/11/30 07:46:02;;;;;;;3.53;3.22;;;3.70;99.90;;;;;;5032727;28;20036;-55
2021/11/30 07:48:28;;;;;;;3.13;2.88;;;3.60;99.90;;;;;;5032745;28;20029;-54
2021/11/30 07:50:56;;;;;;;3.03;2.72;;;3.60;99.90;;;;;;5032342;28;20487;-53
2021/11/30 07:53:23;;;;;;;2.42;2.30;;;3.70;99.90;;;;;;5032526;28;20557;-53
2021/11/30 07:55:48;;;;;;;3.13;2.53;;;3.70;99.90;;;;;;5032487;28;20116;-53
2021/11/30 07:58:14;;;;;;;2.38;2.17;;;3.70;99.90;;;;;;5032245;28;20112;-53
2021/11/30 08:00:40;;;;;;;2.33;2.20;;;3.70;99.90;;;;;;5030814;28;20545;-55
2021/11/30 08:03:06;;;;;;;4.00;2.13;;;3.70;99.90;;;;;;5031200;28;20022;-57
2021/11/30 08:05:32;;;;;;;2.15;1.95;;;3.70;99.90;;;;;;5032418;28;20036;-54
2021/11/30 08:07:58;;;;;;;2.35;2.15;;;3.70;99.90;;;;;;5032197;28;20108;-54
2021/11/30 08:10:27;;;;;;;2.33;2.00;;;3.70;99.90;;;;;;5031881;28;20586;-54
2021/11/30 08:12:53;;;;;;;1.80;1.70;;;3.70;99.90;;;;;;5032228;28;20021;-53
2021/11/30 08:15:19;;;;;;;1.90;1.80;;;3.70;99.90;;;;;;5030991;28;20025;-54
2021/11/30 08:17:46;;;;;;;2.45;1.75;;;3.70;99.90;;;;;;5032163;28;20080;-55
2021/11/30 08:20:12;;;;;;;2.67;2.30;;;3.80;99.90;;;;;;5030556;28;20415;-53
2021/11/30 08:22:39;;;;;;;2.20;1.40;;;3.80;99.90;;;;;;5032100;28;20021;-55
2021/11/30 08:25:05;;;;;;;1.58;1.48;;;3.80;99.90;;;;;;5032036;28;20026;-55
2021/11/30 08:27:32;;;;;;;1.60;1.50;;;3.90;99.90;;;;;;5031975;28;20052;-53
2021/11/30 08:29:58;;;;;;;1.00;1.00;;;3.90;99.90;;;;;;5031586;28;20117;-51
2021/11/30 08:32:24;;;;;;;1.60;1.50;;;3.90;99.90;;;;;;5031982;28;20104;-57
2021/11/30 08:34:52;;;;;;;1.10;1.10;;;3.90;99.90;;;;;;5031971;28;20029;-49
2021/11/30 08:37:19;;;;;;;1.45;1.33;;;3.90;99.90;;;;;;5031840;28;20341;-56
2021/11/30 08:39:48;;;;;;;1.17;1.17;;;4.00;99.90;;;;;;5031400;28;20032;-54
2021/11/30 08:42:14;;;;;;;1.00;1.00;;;4.00;99.90;;;;;;5031406;28;20017;-53
2021/11/30 08:44:40;;;;;;;4.80;1.30;;;4.00;99.90;;;;;;5030499;28;20021;-57
2021/11/30 08:47:09;;;;;;;1.23;1.23;;;4.00;99.90;;;;;;5031712;28;20021;-56
2021/11/30 08:49:36;;;;;;;1.13;1.00;;;4.10;99.90;;;;;;5030903;28;20075;-58
2021/11/30 08:52:04;;;;;;;1.10;1.10;;;4.10;99.90;;;;;;5029898;28;20021;-55
2021/11/30 08:54:30;;;;;;;1.15;1.10;;;4.10;99.90;;;;;;5031732;28;20383;-56
2021/11/30 08:56:58;;;;;;;1.20;1.10;;;4.10;99.90;;;;;;5029671;28;20094;-56
2021/11/30 08:59:25;;;;;;;2.03;1.35;;;4.10;99.90;;;;;;5030040;28;20053;-53
2021/11/30 09:01:51;;;;;;;1.98;1.10;;;4.10;99.90;;;;;;5031709;28;20422;-56
2021/11/30 09:04:17;;;;;;;0.80;0.80;;;4.20;99.90;;;;;;5031631;28;20100;-53
2021/11/30 09:06:42;;;;;;;0.93;0.93;;;4.20;99.90;;;;;;5030864;28;20112;-54
2021/11/30 09:09:09;;;;;;;1.00;1.00;;;4.10;99.90;;;;;;5031137;28;20026;-50
2021/11/30 09:11:36;;;;;;;0.80;0.80;;;4.10;99.90;;;;;;5029634;28;20026;-53
2021/11/30 09:14:03;;;;;;;1.42;1.10;;;4.20;99.90;;;;;;5031798;28;20449;-56
2021/11/30 09:16:28;;;;;;;0.90;0.90;;;4.20;99.90;;;;;;5032270;28;20037;-51
2021/11/30 09:18:54;;;;;;;1.00;1.00;;;4.20;99.90;;;;;;5031315;28;20467;-50
2021/11/30 09:21:20;;;;;;;0.90;0.90;;;4.30;99.90;;;;;;5029726;28;20045;-55
2021/11/30 09:23:46;;;;;;;0.82;0.80;;;4.30;99.90;;;;;;5031393;28;20032;-52
2021/11/30 09:26:12;;;;;;;2.05;1.10;;;4.40;99.90;;;;;;5031000;28;20025;-51
2021/11/30 09:28:39;;;;;;;1.00;0.90;;;4.40;99.90;;;;;;5031401;28;20033;-53
2021/11/30 09:31:05;;;;;;;0.70;0.70;;;4.40;99.90;;;;;;5030842;28;20479;-54
2021/11/30 09:33:30;;;;;;;0.90;0.90;;;4.40;99.90;;;;;;5031120;28;20034;-52
2021/11/30 09:35:56;;;;;;;0.60;0.60;;;4.40;99.90;;;;;;5031130;28;20045;-53
2021/11/30 09:38:22;;;;;;;0.75;0.75;;;4.40;99.90;;;;;;5030986;28;20030;-55
2021/11/30 09:40:51;;;;;;;0.88;0.88;;;4.50;99.90;;;;;;5030379;28;20101;-53
2021/11/30 09:43:18;;;;;;;0.93;0.93;;;4.50;99.90;;;;;;5031054;28;20386;-57
2021/11/30 09:45:44;;;;;;;0.80;0.80;;;4.50;99.90;;;;;;5031072;28;20017;-53
2021/11/30 09:48:13;;;;;;;1.15;1.05;;;4.50;99.90;;;;;;5030896;28;20041;-55
2021/11/30 09:50:41;;;;;;;0.80;0.80;;;4.50;99.90;;;;;;5030600;28;20495;-55
2021/11/30 09:53:07;;;;;;;0.60;0.60;;;4.50;99.90;;;;;;5025708;28;20033;-51
2021/11/30 09:55:34;;;;;;;0.70;0.70;;;4.60;99.90;;;;;;5022760;28;20029;-52
2021/11/30 09:57:59;;;;;;;0.65;0.65;;;4.60;99.90;;;;;;5027663;28;20061;-52
2021/11/30 10:00:25;;;;;;;1.05;1.05;;;4.60;99.90;;;;;;5013141;28;20546;-54
2021/11/30 10:02:54;;;;;;;0.70;0.70;;;4.60;99.90;;;;;;5019336;28;20121;-49
2021/11/30 10:05:20;;;;;;;0.80;0.80;;;4.60;99.90;;;;;;5033744;28;20021;-49
2021/11/30 10:07:50;;;;;;;0.80;0.80;;;4.60;99.90;;;;;;5020919;28;20065;-51
2021/11/30 10:10:19;;;;;;;0.70;0.70;;;4.60;99.90;;;;;;5014993;28;20084;-52
2021/11/30 10:13:05;;;;;;;0.82;0.82;;;4.60;99.90;;;;;;5032382;28;20030;-49
2021/11/30 10:15:50;;;;;;;0.90;0.90;;;4.70;99.90;;;;;;5024975;28;20025;-50
2021/11/30 10:18:18;;;;;;;1.02;1.02;;;4.70;99.90;;;;;;5031942;28;20022;-49
2021/11/30 10:20:45;;;;;;;2.15;0.80;;;4.70;99.90;;;;;;5025981;28;20061;-55
2021/11/30 10:23:12;;;;;;;1.17;1.08;;;4.70;99.90;;;;;;5032147;28;20083;-50
2021/11/30 10:25:40;;;;;;;0.90;0.90;;;4.70;99.90;;;;;;5033617;28;20060;-53
2021/11/30 10:28:07;;;;;;;1.35;1.25;;;4.70;99.90;;;;;;5033550;28;20403;-53
2021/11/30 10:30:36;;;;;;;1.00;1.00;;;4.70;99.90;;;;;;5033501;28;20028;-52
2021/11/30 10:33:16;;;;;;;1.15;1.10;;;4.80;99.90;;;;;;5032626;28;20083;-55
2021/11/30 10:35:43;;;;;;;1.20;1.10;;;4.80;99.90;;;;;;5033797;28;20139;-55
2021/11/30 10:38:09;;;;;;;1.80;1.10;;;4.70;99.90;;;;;;5032363;28;20041;-55
2021/11/30 10:40:39;;;;;;;1.00;1.00;;;4.80;99.90;;;;;;5032092;28;20099;-53
2021/11/30 10:43:10;;;;;;;1.20;1.10;;;4.80;99.90;;;;;;5033772;28;20472;-55
2021/11/30 10:45:43;;;;;;;1.60;1.13;;;4.80;99.90;;;;;;5033529;28;20075;-51
2021/11/30 10:48:14;;;;;;;1.17;1.10;;;4.80;99.90;;;;;;5033771;28;20105;-52
2021/11/30 10:50:43;;;;;;;1.80;1.13;;;4.80;99.90;;;;;;5033073;28;20060;-51
2021/11/30 10:53:23;;;;;;;1.05;1.00;;;4.80;99.90;;;;;;5033331;28;20060;-53
2021/11/30 10:56:06;;;;;;;2.35;1.40;;;4.80;99.90;;;;;;5021813;28;20032;-52
2021/11/30 10:58:35;;;;;;;1.00;1.00;;;4.80;99.90;;;;;;5024129;28;20038;-58
2021/11/30 11:01:08;;;;;;;2.05;1.42;;;4.80;99.90;;;;;;5032633;28;20396;-59
2021/11/30 11:03:34;;;;;;;1.88;1.77;;;4.90;99.90;;;;;;5033241;28;20021;-56
2021/11/30 11:08:49;;;;;;;1.25;1.13;;;4.90;99.90;;;;;;5033203;28;20099;-52
2021/11/30 11:11:21;;;;;;;1.73;1.60;;;4.80;99.90;;;;;;5032522;28;20034;-59
2021/11/30 11:13:47;;;;;;;1.63;1.52;;;4.80;99.90;;;;;;5032792;28;20064;-59
2021/11/30 11:16:34;;;;;;;1.60;1.50;;;4.80;99.90;;;;;;5027762;28;20418;-52
2021/11/30 11:19:05;;;;;;;1.38;1.38;;;4.90;99.90;;;;;;5012858;28;20026;-49
2021/11/30 11:21:35;;;;;;;1.35;1.30;;;4.90;99.90;;;;;;5028026;28;20026;-49
2021/11/30 11:24:10;;;;;;;1.88;1.77;;;5.00;99.90;;;;;;5032790;28;20021;-52
2021/11/30 11:26:41;;;;;;;1.90;1.80;;;5.00;99.90;;;;;;5032796;28;20113;-52
2021/11/30 11:29:12;;;;;;;1.38;1.38;;;5.00;99.90;;;;;;5032424;28;20104;-57
2021/11/30 11:31:41;;;;;;;1.17;1.17;;;5.00;99.90;;;;;;5027929;28;20091;-59
2021/11/30 11:34:07;;;;;;;1.70;1.60;;;5.00;99.90;;;;;;5030642;28;20033;-58
2021/11/30 11:36:33;;;;;;;1.50;1.40;;;5.00;99.90;;;;;;5032157;28;20511;-56
2021/11/30 11:38:59;;;;;;;1.60;1.50;;;5.00;99.90;;;;;;5032211;28;20084;-56
2021/11/30 11:41:25;;;;;;;1.00;1.00;;;5.10;99.90;;;;;;5030465;28;20033;-56
2021/11/30 11:43:52;;;;;;;1.38;1.38;;;5.10;99.90;;;;;;5030798;28;20025;-51
2021/11/30 11:46:19;;;;;;;1.30;1.25;;;5.10;99.90;;;;;;5032322;28;20026;-51
2021/11/30 11:48:47;;;;;;;2.25;1.30;;;5.00;99.90;;;;;;5032371;28;20025;-54
2021/11/30 11:51:14;;;;;;;1.15;1.15;;;5.10;99.90;;;;;;5011115;28;20475;-50
2021/11/30 11:53:54;;;;;;;1.40;1.30;;;5.10;99.90;;;;;;5011222;28;20033;-52
2021/11/30 11:56:26;;;;;;;3.85;1.50;;;5.20;99.90;;;;;;5012605;28;20072;-56
2021/11/30 11:59:16;;;;;;;1.50;1.40;;;5.10;99.90;;;;;;5012418;28;20017;-51
2021/11/30 12:01:46;;;;;;;1.20;1.10;;;5.10;99.90;;;;;;5024603;28;20030;-51
2021/11/30 12:04:15;;;;;;;1.42;1.35;;;5.20;99.90;;;;;;5032045;28;20025;-51
2021/11/30 12:06:52;;;;;;;1.40;1.30;;;5.20;99.90;;;;;;5032020;28;20014;-53
2021/11/30 12:09:24;;;;;;;1.30;1.20;;;5.20;99.90;;;;;;5031511;28;20029;-54
2021/11/30 12:11:56;;;;;;;1.15;1.15;;;5.30;99.90;;;;;;5032149;28;20091;-50
2021/11/30 12:14:34;;;;;;;1.35;1.25;;;5.20;99.90;;;;;;5031891;28;20403;-52
2021/11/30 12:17:10;;;;;;;1.10;1.10;;;5.30;99.90;;;;;;5030713;28;20411;-55
2021/11/30 12:20:05;;;;;;;1.02;1.02;;;5.30;99.90;;;;;;5047418;22;20086;-52
2021/11/30 12:22:52;;;;;;;1.30;1.13;;;5.30;99.90;;;;;;5011128;28;20532;-50
2021/11/30 12:25:26;;;;;;;1.20;1.10;;;5.30;99.90;;;;;;5011141;28;20453;-45
2021/11/30 12:28:30;;;;;;;1.03;1.03;;;5.30;99.90;;;;;;5003454;28;20023;-45
2021/11/30 12:30:58;;;;;;;0.70;0.70;;;5.20;99.90;;;;;;4998484;28;20523;-47
2021/11/30 12:33:24;;;;;;;1.48;1.00;;;5.30;99.90;;;;;;5007314;28;20088;-44
2021/11/30 12:35:57;;;;;;;1.00;1.00;;;5.30;99.90;;;;;;4992640;28;20106;-49
2021/11/30 12:38:48;;;;;;;1.10;1.10;;;5.20;99.90;;;;;;4989470;28;20034;-49
2021/11/30 12:41:23;;;;;;;0.90;0.90;;;5.30;99.90;;;;;;4991546;28;20635;-45
2021/11/30 12:43:50;;;;;;;0.80;0.80;;;5.20;99.90;;;;;;4992621;28;20018;-45
2021/11/30 12:46:31;;;;;;;1.00;1.00;;;5.20;99.90;;;;;;4992355;28;20480;-45
2021/11/30 12:48:57;;;;;;;0.77;0.77;;;5.20;99.90;;;;;;4991065;28;20085;-49
2021/11/30 12:51:26;;;;;;;0.90;0.90;;;5.30;99.90;;;;;;4976992;28;20488;-46
2021/11/30 12:53:53;;;;;;;1.05;1.00;;;5.30;99.90;;;;;;4972577;28;20511;-42
2021/11/30 12:56:45;;;;;;;0.60;0.60;;;5.30;99.90;;;;;;4972946;28;20035;-46
2021/11/30 12:59:11;;;;;;;0.80;0.80;;;5.40;99.90;;;;;;4972221;28;20053;-43
2021/11/30 13:01:37;;;;;;;1.17;1.15;;;5.40;99.90;;;;;;4972858;28;20416;-45
2021/11/30 13:04:31;;;;;;;1.13;1.08;;;5.40;99.90;;;;;;4973306;28;20023;-46
2021/11/30 13:07:03;;;;;;;0.65;0.65;;;5.50;99.90;;;;;;4972692;28;20030;-63
2021/11/30 13:09:44;;;;;;;0.60;0.60;;;5.50;99.90;;;;;;4971023;28;20401;-63
2021/11/30 13:12:15;;;;;;;0.60;0.60;;;5.50;99.90;;;;;;4972066;28;20034;-61